sensor_id;sensor_type;location;lat;lon;timestamp;P1;durP1;ratioP1;P2;durP2;ratioP2
36797;SDS011;22748;8.426;99.512;2024-02-16T00:02:20;79.30;;;50.72;;
36797;SDS011;22748;8.426;99.512;2024-02-16T00:04:50;60.45;;;39.50;;
36797;SDS011;22748;8.426;99.512;2024-02-16T00:07:18;54.28;;;38.88;;
36797;SDS011;22748;8.426;99.512;2024-02-16T00:09:47;70.53;;;44.92;;
36797;SDS011;22748;8.426;99.512;2024-02-16T00:12:15;92.13;;;65.72;;
36797;SDS011;22748;8.426;99.512;2024-02-16T00:14:44;91.53;;;68.53;;
36797;SDS011;22748;8.426;99.512;2024-02-16T00:17:14;89.10;;;60.80;;
36797;SDS011;22748;8.426;99.512;2024-02-16T00:19:49;69.68;;;45.13;;
36797;SDS011;22748;8.426;99.512;2024-02-16T00:22:17;56.38;;;38.78;;
36797;SDS011;22748;8.426;99.512;2024-02-16T00:24:46;51.67;;;36.15;;
36797;SDS011;22748;8.426;99.512;2024-02-16T00:27:36;43.97;;;32.63;;
36797;SDS011;22748;8.426;99.512;2024-02-16T00:30:08;53.92;;;33.53;;
36797;SDS011;22748;8.426;99.512;2024-02-16T00:32:38;49.08;;;32.53;;
36797;SDS011;22748;8.426;99.512;2024-02-16T00:37:56;40.92;;;28.70;;
36797;SDS011;22748;8.426;99.512;2024-02-16T00:40:25;46.25;;;35.33;;
36797;SDS011;22748;8.426;99.512;2024-02-16T00:42:54;53.30;;;39.47;;
36797;SDS011;22748;8.426;99.512;2024-02-16T00:45:23;61.30;;;47.20;;
36797;SDS011;22748;8.426;99.512;2024-02-16T00:47:52;52.30;;;38.45;;
36797;SDS011;22748;8.426;99.512;2024-02-16T00:50:20;45.22;;;35.20;;
36797;SDS011;22748;8.426;99.512;2024-02-16T00:52:55;45.90;;;33.85;;
36797;SDS011;22748;8.426;99.512;2024-02-16T00:55:26;46.17;;;34.78;;
36797;SDS011;22748;8.426;99.512;2024-02-16T00:57:54;45.42;;;33.15;;
36797;SDS011;22748;8.426;99.512;2024-02-16T01:00:23;53.70;;;34.55;;
36797;SDS011;22748;8.426;99.512;2024-02-16T01:02:51;44.15;;;27.70;;
36797;SDS011;22748;8.426;99.512;2024-02-16T01:05:20;43.53;;;28.90;;
36797;SDS011;22748;8.426;99.512;2024-02-16T01:07:49;51.83;;;29.95;;
36797;SDS011;22748;8.426;99.512;2024-02-16T01:10:20;44.97;;;29.52;;
36797;SDS011;22748;8.426;99.512;2024-02-16T01:12:48;44.10;;;29.33;;
36797;SDS011;22748;8.426;99.512;2024-02-16T01:15:18;44.38;;;28.73;;
36797;SDS011;22748;8.426;99.512;2024-02-16T01:17:47;42.47;;;28.70;;
36797;SDS011;22748;8.426;99.512;2024-02-16T01:20:16;38.33;;;28.20;;
36797;SDS011;22748;8.426;99.512;2024-02-16T01:22:46;38.25;;;27.70;;
36797;SDS011;22748;8.426;99.512;2024-02-16T01:25:15;35.58;;;25.65;;
36797;SDS011;22748;8.426;99.512;2024-02-16T01:27:50;42.75;;;28.20;;
36797;SDS011;22748;8.426;99.512;2024-02-16T01:30:19;41.72;;;27.63;;
36797;SDS011;22748;8.426;99.512;2024-02-16T01:32:48;42.85;;;31.17;;
36797;SDS011;22748;8.426;99.512;2024-02-16T01:35:16;41.08;;;29.40;;
36797;SDS011;22748;8.426;99.512;2024-02-16T01:37:45;36.65;;;25.88;;
36797;SDS011;22748;8.426;99.512;2024-02-16T01:40:14;38.95;;;25.08;;
36797;SDS011;22748;8.426;99.512;2024-02-16T01:42:49;34.72;;;24.83;;
36797;SDS011;22748;8.426;99.512;2024-02-16T01:45:18;36.72;;;24.40;;
36797;SDS011;22748;8.426;99.512;2024-02-16T01:47:47;40.67;;;26.23;;
36797;SDS011;22748;8.426;99.512;2024-02-16T01:50:17;38.20;;;25.55;;
36797;SDS011;22748;8.426;99.512;2024-02-16T01:52:47;37.40;;;20.10;;
36797;SDS011;22748;8.426;99.512;2024-02-16T01:55:16;32.92;;;21.17;;
36797;SDS011;22748;8.426;99.512;2024-02-16T01:57:47;25.48;;;16.70;;
36797;SDS011;22748;8.426;99.512;2024-02-16T02:00:16;34.15;;;19.52;;
36797;SDS011;22748;8.426;99.512;2024-02-16T02:02:45;35.92;;;19.80;;
36797;SDS011;22748;8.426;99.512;2024-02-16T02:05:14;31.83;;;20.42;;
36797;SDS011;22748;8.426;99.512;2024-02-16T02:07:44;33.53;;;19.63;;
36797;SDS011;22748;8.426;99.512;2024-02-16T02:10:12;29.30;;;19.38;;
36797;SDS011;22748;8.426;99.512;2024-02-16T02:12:42;26.30;;;16.13;;
36797;SDS011;22748;8.426;99.512;2024-02-16T02:15:18;29.40;;;16.83;;
36797;SDS011;22748;8.426;99.512;2024-02-16T02:17:47;25.75;;;15.93;;
36797;SDS011;22748;8.426;99.512;2024-02-16T02:20:15;33.03;;;21.40;;
36797;SDS011;22748;8.426;99.512;2024-02-16T02:22:50;34.60;;;20.98;;
36797;SDS011;22748;8.426;99.512;2024-02-16T02:25:19;26.75;;;20.13;;
36797;SDS011;22748;8.426;99.512;2024-02-16T02:27:48;31.20;;;19.90;;
36797;SDS011;22748;8.426;99.512;2024-02-16T02:30:18;28.23;;;18.20;;
36797;SDS011;22748;8.426;99.512;2024-02-16T02:32:47;30.75;;;20.38;;
36797;SDS011;22748;8.426;99.512;2024-02-16T02:35:16;41.65;;;26.92;;
36797;SDS011;22748;8.426;99.512;2024-02-16T02:37:51;36.20;;;24.88;;
36797;SDS011;22748;8.426;99.512;2024-02-16T02:40:20;29.98;;;20.50;;
36797;SDS011;22748;8.426;99.512;2024-02-16T02:42:50;28.15;;;19.85;;
36797;SDS011;22748;8.426;99.512;2024-02-16T02:45:19;31.27;;;16.35;;
36797;SDS011;22748;8.426;99.512;2024-02-16T02:47:49;21.08;;;12.48;;
36797;SDS011;22748;8.426;99.512;2024-02-16T02:50:17;22.60;;;12.40;;
36797;SDS011;22748;8.426;99.512;2024-02-16T02:52:49;22.00;;;12.93;;
36797;SDS011;22748;8.426;99.512;2024-02-16T02:55:17;21.75;;;11.68;;
36797;SDS011;22748;8.426;99.512;2024-02-16T02:57:46;18.80;;;11.65;;
36797;SDS011;22748;8.426;99.512;2024-02-16T03:00:15;16.08;;;11.68;;
36797;SDS011;22748;8.426;99.512;2024-02-16T03:02:44;21.02;;;13.25;;
36797;SDS011;22748;8.426;99.512;2024-02-16T03:05:14;19.13;;;11.85;;
36797;SDS011;22748;8.426;99.512;2024-02-16T03:07:45;19.05;;;12.30;;
36797;SDS011;22748;8.426;99.512;2024-02-16T03:10:20;21.52;;;11.02;;
36797;SDS011;22748;8.426;99.512;2024-02-16T03:12:50;22.27;;;11.88;;
36797;SDS011;22748;8.426;99.512;2024-02-16T03:15:20;19.02;;;12.30;;
36797;SDS011;22748;8.426;99.512;2024-02-16T03:17:49;18.70;;;12.13;;
36797;SDS011;22748;8.426;99.512;2024-02-16T03:20:18;21.52;;;15.10;;
36797;SDS011;22748;8.426;99.512;2024-02-16T03:22:47;17.67;;;11.82;;
36797;SDS011;22748;8.426;99.512;2024-02-16T03:25:22;18.38;;;10.27;;
36797;SDS011;22748;8.426;99.512;2024-02-16T03:27:52;16.67;;;10.18;;
36797;SDS011;22748;8.426;99.512;2024-02-16T03:30:23;19.40;;;10.48;;
36797;SDS011;22748;8.426;99.512;2024-02-16T03:32:51;18.30;;;9.95;;
36797;SDS011;22748;8.426;99.512;2024-02-16T03:35:20;16.08;;;9.80;;
36797;SDS011;22748;8.426;99.512;2024-02-16T03:37:49;16.75;;;10.02;;
36797;SDS011;22748;8.426;99.512;2024-02-16T03:40:21;15.20;;;10.15;;
36797;SDS011;22748;8.426;99.512;2024-02-16T03:42:51;13.60;;;9.13;;
36797;SDS011;22748;8.426;99.512;2024-02-16T03:45:21;16.20;;;9.85;;
36797;SDS011;22748;8.426;99.512;2024-02-16T03:47:49;21.00;;;9.93;;
36797;SDS011;22748;8.426;99.512;2024-02-16T03:50:18;14.80;;;9.23;;
36797;SDS011;22748;8.426;99.512;2024-02-16T03:52:48;14.52;;;9.75;;
36797;SDS011;22748;8.426;99.512;2024-02-16T03:55:18;15.20;;;10.07;;
36797;SDS011;22748;8.426;99.512;2024-02-16T03:57:53;15.15;;;10.13;;
36797;SDS011;22748;8.426;99.512;2024-02-16T04:00:22;17.98;;;10.85;;
36797;SDS011;22748;8.426;99.512;2024-02-16T04:02:50;20.40;;;11.25;;
36797;SDS011;22748;8.426;99.512;2024-02-16T04:05:19;17.23;;;9.50;;
36797;SDS011;22748;8.426;99.512;2024-02-16T04:07:47;18.00;;;9.93;;
36797;SDS011;22748;8.426;99.512;2024-02-16T04:10:16;15.65;;;10.13;;
36797;SDS011;22748;8.426;99.512;2024-02-16T04:12:45;16.80;;;10.07;;
36797;SDS011;22748;8.426;99.512;2024-02-16T04:15:21;17.08;;;11.50;;
36797;SDS011;22748;8.426;99.512;2024-02-16T04:17:50;19.05;;;12.52;;
36797;SDS011;22748;8.426;99.512;2024-02-16T04:20:18;17.77;;;11.32;;
36797;SDS011;22748;8.426;99.512;2024-02-16T04:22:47;14.32;;;10.88;;
36797;SDS011;22748;8.426;99.512;2024-02-16T04:25:16;17.67;;;11.60;;
36797;SDS011;22748;8.426;99.512;2024-02-16T04:27:45;17.40;;;10.85;;
36797;SDS011;22748;8.426;99.512;2024-02-16T04:30:19;17.17;;;10.52;;
36797;SDS011;22748;8.426;99.512;2024-02-16T04:32:48;14.40;;;10.35;;
36797;SDS011;22748;8.426;99.512;2024-02-16T04:35:16;15.73;;;10.30;;
36797;SDS011;22748;8.426;99.512;2024-02-16T04:37:45;20.13;;;10.80;;
36797;SDS011;22748;8.426;99.512;2024-02-16T04:40:14;16.17;;;10.73;;
36797;SDS011;22748;8.426;99.512;2024-02-16T04:42:43;19.85;;;10.63;;
36797;SDS011;22748;8.426;99.512;2024-02-16T04:45:12;21.02;;;10.00;;
36797;SDS011;22748;8.426;99.512;2024-02-16T04:47:46;18.35;;;9.70;;
36797;SDS011;22748;8.426;99.512;2024-02-16T04:50:15;15.02;;;9.20;;
36797;SDS011;22748;8.426;99.512;2024-02-16T04:52:45;13.80;;;9.50;;
36797;SDS011;22748;8.426;99.512;2024-02-16T04:55:14;15.63;;;9.40;;
36797;SDS011;22748;8.426;99.512;2024-02-16T04:57:43;17.63;;;10.23;;
36797;SDS011;22748;8.426;99.512;2024-02-16T05:00:12;14.73;;;9.82;;
36797;SDS011;22748;8.426;99.512;2024-02-16T05:02:47;13.95;;;9.40;;
36797;SDS011;22748;8.426;99.512;2024-02-16T05:05:15;19.42;;;9.85;;
36797;SDS011;22748;8.426;99.512;2024-02-16T05:07:46;13.50;;;9.38;;
36797;SDS011;22748;8.426;99.512;2024-02-16T05:10:16;18.88;;;9.65;;
36797;SDS011;22748;8.426;99.512;2024-02-16T05:12:46;13.50;;;8.90;;
36797;SDS011;22748;8.426;99.512;2024-02-16T05:15:15;15.93;;;9.48;;
36797;SDS011;22748;8.426;99.512;2024-02-16T05:17:52;15.05;;;9.15;;
36797;SDS011;22748;8.426;99.512;2024-02-16T05:20:22;14.40;;;8.98;;
36797;SDS011;22748;8.426;99.512;2024-02-16T05:22:50;14.80;;;9.38;;
36797;SDS011;22748;8.426;99.512;2024-02-16T05:25:19;13.98;;;9.18;;
36797;SDS011;22748;8.426;99.512;2024-02-16T05:27:48;17.30;;;9.20;;
36797;SDS011;22748;8.426;99.512;2024-02-16T05:30:17;12.93;;;8.50;;
36797;SDS011;22748;8.426;99.512;2024-02-16T05:32:45;16.65;;;9.23;;
36797;SDS011;22748;8.426;99.512;2024-02-16T05:35:21;15.38;;;9.45;;
36797;SDS011;22748;8.426;99.512;2024-02-16T05:37:54;18.05;;;9.55;;
36797;SDS011;22748;8.426;99.512;2024-02-16T05:40:25;13.88;;;9.32;;
36797;SDS011;22748;8.426;99.512;2024-02-16T05:42:56;12.75;;;9.02;;
36797;SDS011;22748;8.426;99.512;2024-02-16T05:45:34;11.75;;;8.88;;
36797;SDS011;22748;8.426;99.512;2024-02-16T05:48:10;12.43;;;7.75;;
36797;SDS011;22748;8.426;99.512;2024-02-16T05:51:09;13.68;;;8.27;;
36797;SDS011;22748;8.426;99.512;2024-02-16T05:53:38;12.60;;;8.23;;
36797;SDS011;22748;8.426;99.512;2024-02-16T05:56:07;16.35;;;8.93;;
36797;SDS011;22748;8.426;99.512;2024-02-16T05:58:37;15.23;;;8.38;;
36797;SDS011;22748;8.426;99.512;2024-02-16T06:01:05;14.38;;;8.32;;
36797;SDS011;22748;8.426;99.512;2024-02-16T06:03:36;10.20;;;7.97;;
36797;SDS011;22748;8.426;99.512;2024-02-16T06:06:06;13.63;;;7.93;;
36797;SDS011;22748;8.426;99.512;2024-02-16T06:08:36;13.43;;;8.90;;
36797;SDS011;22748;8.426;99.512;2024-02-16T06:11:07;17.70;;;9.00;;
36797;SDS011;22748;8.426;99.512;2024-02-16T06:13:36;13.57;;;10.32;;
36797;SDS011;22748;8.426;99.512;2024-02-16T06:16:05;15.30;;;9.88;;
36797;SDS011;22748;8.426;99.512;2024-02-16T06:18:35;12.77;;;9.03;;
36797;SDS011;22748;8.426;99.512;2024-02-16T06:21:11;15.20;;;8.85;;
36797;SDS011;22748;8.426;99.512;2024-02-16T06:23:39;13.48;;;9.02;;
36797;SDS011;22748;8.426;99.512;2024-02-16T06:26:08;12.70;;;8.90;;
36797;SDS011;22748;8.426;99.512;2024-02-16T06:28:37;16.05;;;10.10;;
36797;SDS011;22748;8.426;99.512;2024-02-16T06:31:06;14.07;;;8.73;;
36797;SDS011;22748;8.426;99.512;2024-02-16T06:33:37;13.68;;;8.90;;
36797;SDS011;22748;8.426;99.512;2024-02-16T06:36:13;14.23;;;8.57;;
36797;SDS011;22748;8.426;99.512;2024-02-16T06:38:42;16.23;;;8.60;;
36797;SDS011;22748;8.426;99.512;2024-02-16T06:41:12;14.73;;;8.20;;
36797;SDS011;22748;8.426;99.512;2024-02-16T06:43:44;14.55;;;8.43;;
36797;SDS011;22748;8.426;99.512;2024-02-16T06:46:13;13.07;;;8.80;;
36797;SDS011;22748;8.426;99.512;2024-02-16T06:48:42;14.57;;;8.63;;
36797;SDS011;22748;8.426;99.512;2024-02-16T06:51:15;17.00;;;9.48;;
36797;SDS011;22748;8.426;99.512;2024-02-16T06:53:44;13.00;;;8.43;;
36797;SDS011;22748;8.426;99.512;2024-02-16T06:56:14;12.43;;;8.93;;
36797;SDS011;22748;8.426;99.512;2024-02-16T06:58:42;12.32;;;8.30;;
36797;SDS011;22748;8.426;99.512;2024-02-16T07:01:11;11.13;;;7.35;;
36797;SDS011;22748;8.426;99.512;2024-02-16T07:03:41;14.73;;;8.27;;
36797;SDS011;22748;8.426;99.512;2024-02-16T07:06:10;14.35;;;7.55;;
36797;SDS011;22748;8.426;99.512;2024-02-16T07:08:44;8.95;;;7.18;;
36797;SDS011;22748;8.426;99.512;2024-02-16T07:11:13;10.35;;;7.20;;
36797;SDS011;22748;8.426;99.512;2024-02-16T07:13:42;10.98;;;7.32;;
36797;SDS011;22748;8.426;99.512;2024-02-16T07:16:12;10.13;;;7.22;;
36797;SDS011;22748;8.426;99.512;2024-02-16T07:18:41;11.52;;;7.68;;
36797;SDS011;22748;8.426;99.512;2024-02-16T07:21:09;13.05;;;7.55;;
36797;SDS011;22748;8.426;99.512;2024-02-16T07:23:38;13.55;;;7.28;;
36797;SDS011;22748;8.426;99.512;2024-02-16T07:26:12;12.35;;;7.60;;
36797;SDS011;22748;8.426;99.512;2024-02-16T07:28:43;11.65;;;6.85;;
36797;SDS011;22748;8.426;99.512;2024-02-16T07:31:13;11.05;;;7.40;;
36797;SDS011;22748;8.426;99.512;2024-02-16T07:33:42;14.95;;;7.78;;
36797;SDS011;22748;8.426;99.512;2024-02-16T07:36:10;9.55;;;7.32;;
36797;SDS011;22748;8.426;99.512;2024-02-16T07:38:41;9.27;;;7.65;;
36797;SDS011;22748;8.426;99.512;2024-02-16T07:41:16;10.02;;;7.80;;
36797;SDS011;22748;8.426;99.512;2024-02-16T07:43:45;14.93;;;7.90;;
36797;SDS011;22748;8.426;99.512;2024-02-16T07:46:14;8.77;;;7.25;;
36797;SDS011;22748;8.426;99.512;2024-02-16T07:48:44;11.55;;;8.27;;
36797;SDS011;22748;8.426;99.512;2024-02-16T07:51:13;11.63;;;8.27;;
36797;SDS011;22748;8.426;99.512;2024-02-16T07:53:41;12.20;;;8.57;;
36797;SDS011;22748;8.426;99.512;2024-02-16T07:56:14;10.73;;;7.90;;
36797;SDS011;22748;8.426;99.512;2024-02-16T07:58:44;12.05;;;8.48;;
36797;SDS011;22748;8.426;99.512;2024-02-16T08:01:14;13.27;;;8.70;;
36797;SDS011;22748;8.426;99.512;2024-02-16T08:03:43;15.93;;;8.48;;
36797;SDS011;22748;8.426;99.512;2024-02-16T08:06:38;12.43;;;8.32;;
36797;SDS011;22748;8.426;99.512;2024-02-16T08:09:19;14.65;;;8.98;;
36797;SDS011;22748;8.426;99.512;2024-02-16T08:11:49;14.50;;;8.60;;
36797;SDS011;22748;8.426;99.512;2024-02-16T08:14:17;14.55;;;8.88;;
36797;SDS011;22748;8.426;99.512;2024-02-16T08:16:46;14.77;;;8.70;;
36797;SDS011;22748;8.426;99.512;2024-02-16T08:19:15;12.18;;;8.32;;
36797;SDS011;22748;8.426;99.512;2024-02-16T08:21:43;11.80;;;8.57;;
36797;SDS011;22748;8.426;99.512;2024-02-16T08:24:12;12.70;;;9.13;;
36797;SDS011;22748;8.426;99.512;2024-02-16T08:26:41;13.82;;;9.10;;
36797;SDS011;22748;8.426;99.512;2024-02-16T08:29:16;10.45;;;8.07;;
36797;SDS011;22748;8.426;99.512;2024-02-16T08:31:47;13.43;;;9.02;;
36797;SDS011;22748;8.426;99.512;2024-02-16T08:34:17;9.00;;;8.03;;
36797;SDS011;22748;8.426;99.512;2024-02-16T08:36:47;13.37;;;9.00;;
36797;SDS011;22748;8.426;99.512;2024-02-16T08:39:16;11.23;;;8.88;;
36797;SDS011;22748;8.426;99.512;2024-02-16T08:41:46;13.02;;;8.70;;
36797;SDS011;22748;8.426;99.512;2024-02-16T08:44:22;14.40;;;9.18;;
36797;SDS011;22748;8.426;99.512;2024-02-16T08:46:51;14.65;;;11.52;;
36797;SDS011;22748;8.426;99.512;2024-02-16T08:49:21;15.23;;;11.15;;
36797;SDS011;22748;8.426;99.512;2024-02-16T08:51:50;24.60;;;19.95;;
36797;SDS011;22748;8.426;99.512;2024-02-16T08:54:18;15.57;;;10.10;;
36797;SDS011;22748;8.426;99.512;2024-02-16T08:56:47;12.48;;;9.23;;
36797;SDS011;22748;8.426;99.512;2024-02-16T08:59:21;15.82;;;9.52;;
36797;SDS011;22748;8.426;99.512;2024-02-16T09:01:50;13.50;;;9.60;;
36797;SDS011;22748;8.426;99.512;2024-02-16T09:04:20;11.93;;;8.90;;
36797;SDS011;22748;8.426;99.512;2024-02-16T09:06:53;13.02;;;9.30;;
36797;SDS011;22748;8.426;99.512;2024-02-16T09:09:22;13.80;;;8.90;;
36797;SDS011;22748;8.426;99.512;2024-02-16T09:11:51;12.13;;;9.30;;
36797;SDS011;22748;8.426;99.512;2024-02-16T09:14:25;14.50;;;9.13;;
36797;SDS011;22748;8.426;99.512;2024-02-16T09:16:54;13.40;;;9.05;;
36797;SDS011;22748;8.426;99.512;2024-02-16T09:19:24;15.90;;;9.23;;
36797;SDS011;22748;8.426;99.512;2024-02-16T09:21:53;14.15;;;9.68;;
36797;SDS011;22748;8.426;99.512;2024-02-16T09:24:23;15.57;;;9.80;;
36797;SDS011;22748;8.426;99.512;2024-02-16T09:26:55;11.63;;;8.68;;
36797;SDS011;22748;8.426;99.512;2024-02-16T09:29:29;13.32;;;9.13;;
36797;SDS011;22748;8.426;99.512;2024-02-16T09:31:58;16.95;;;9.38;;
36797;SDS011;22748;8.426;99.512;2024-02-16T09:34:28;16.42;;;9.13;;
36797;SDS011;22748;8.426;99.512;2024-02-16T09:36:57;19.02;;;9.85;;
36797;SDS011;22748;8.426;99.512;2024-02-16T09:39:25;16.27;;;9.85;;
36797;SDS011;22748;8.426;99.512;2024-02-16T09:41:56;21.02;;;9.65;;
36797;SDS011;22748;8.426;99.512;2024-02-16T09:44:32;19.40;;;9.88;;
36797;SDS011;22748;8.426;99.512;2024-02-16T09:47:03;15.82;;;9.52;;
36797;SDS011;22748;8.426;99.512;2024-02-16T09:49:33;18.37;;;9.20;;
36797;SDS011;22748;8.426;99.512;2024-02-16T09:52:05;16.65;;;8.85;;
36797;SDS011;22748;8.426;99.512;2024-02-16T09:54:38;14.27;;;9.63;;
36797;SDS011;22748;8.426;99.512;2024-02-16T09:57:08;16.33;;;9.77;;
36797;SDS011;22748;8.426;99.512;2024-02-16T09:59:42;16.38;;;9.15;;
36797;SDS011;22748;8.426;99.512;2024-02-16T10:02:11;17.05;;;9.88;;
36797;SDS011;22748;8.426;99.512;2024-02-16T10:04:42;17.90;;;9.93;;
36797;SDS011;22748;8.426;99.512;2024-02-16T10:07:11;19.17;;;9.85;;
36797;SDS011;22748;8.426;99.512;2024-02-16T10:09:40;18.08;;;9.43;;
36797;SDS011;22748;8.426;99.512;2024-02-16T10:12:08;16.25;;;9.52;;
36797;SDS011;22748;8.426;99.512;2024-02-16T10:14:52;17.17;;;10.43;;
36797;SDS011;22748;8.426;99.512;2024-02-16T10:17:22;18.38;;;11.23;;
36797;SDS011;22748;8.426;99.512;2024-02-16T10:19:55;21.33;;;11.35;;
36797;SDS011;22748;8.426;99.512;2024-02-16T10:22:24;21.08;;;11.60;;
36797;SDS011;22748;8.426;99.512;2024-02-16T10:24:54;14.52;;;10.48;;
36797;SDS011;22748;8.426;99.512;2024-02-16T10:27:24;17.17;;;10.93;;
36797;SDS011;22748;8.426;99.512;2024-02-16T10:29:58;21.13;;;11.20;;
36797;SDS011;22748;8.426;99.512;2024-02-16T10:32:27;18.77;;;10.65;;
36797;SDS011;22748;8.426;99.512;2024-02-16T10:34:56;18.83;;;11.35;;
36797;SDS011;22748;8.426;99.512;2024-02-16T10:37:26;20.73;;;11.45;;
36797;SDS011;22748;8.426;99.512;2024-02-16T10:39:55;18.90;;;11.55;;
36797;SDS011;22748;8.426;99.512;2024-02-16T10:42:24;16.58;;;11.27;;
36797;SDS011;22748;8.426;99.512;2024-02-16T10:44:56;18.52;;;11.90;;
36797;SDS011;22748;8.426;99.512;2024-02-16T10:49:53;53.72;;;34.53;;
36797;SDS011;22748;8.426;99.512;2024-02-16T10:52:22;28.90;;;18.42;;
36797;SDS011;22748;8.426;99.512;2024-02-16T10:54:51;31.73;;;18.38;;
36797;SDS011;22748;8.426;99.512;2024-02-16T10:57:20;16.75;;;12.50;;
36797;SDS011;22748;8.426;99.512;2024-02-16T11:02:27;23.90;;;12.52;;
36797;SDS011;22748;8.426;99.512;2024-02-16T11:04:58;19.80;;;12.48;;
36797;SDS011;22748;8.426;99.512;2024-02-16T11:07:28;19.58;;;11.70;;
36797;SDS011;22748;8.426;99.512;2024-02-16T11:12:44;18.77;;;12.55;;
36797;SDS011;22748;8.426;99.512;2024-02-16T11:15:15;20.00;;;14.02;;
36797;SDS011;22748;8.426;99.512;2024-02-16T11:17:46;22.27;;;13.70;;
36797;SDS011;22748;8.426;99.512;2024-02-16T11:20:15;21.60;;;13.75;;
36797;SDS011;22748;8.426;99.512;2024-02-16T11:22:47;24.70;;;12.65;;
36797;SDS011;22748;8.426;99.512;2024-02-16T11:25:17;19.67;;;12.30;;
36797;SDS011;22748;8.426;99.512;2024-02-16T11:27:46;23.02;;;13.38;;
36797;SDS011;22748;8.426;99.512;2024-02-16T11:30:17;23.23;;;14.98;;
36797;SDS011;22748;8.426;99.512;2024-02-16T11:32:49;36.55;;;19.00;;
36797;SDS011;22748;8.426;99.512;2024-02-16T11:35:17;43.42;;;28.25;;
36797;SDS011;22748;8.426;99.512;2024-02-16T11:37:47;39.63;;;26.25;;
36797;SDS011;22748;8.426;99.512;2024-02-16T11:40:15;29.88;;;22.40;;
36797;SDS011;22748;8.426;99.512;2024-02-16T11:42:45;31.30;;;19.48;;
36797;SDS011;22748;8.426;99.512;2024-02-16T11:45:14;21.70;;;16.08;;
36797;SDS011;22748;8.426;99.512;2024-02-16T11:47:43;20.67;;;13.90;;
36797;SDS011;22748;8.426;99.512;2024-02-16T11:50:20;19.52;;;13.82;;
36797;SDS011;22748;8.426;99.512;2024-02-16T11:52:49;23.35;;;14.32;;
36797;SDS011;22748;8.426;99.512;2024-02-16T11:55:20;29.20;;;16.98;;
36797;SDS011;22748;8.426;99.512;2024-02-16T11:57:50;39.13;;;20.35;;
36797;SDS011;22748;8.426;99.512;2024-02-16T12:00:20;23.60;;;14.57;;
36797;SDS011;22748;8.426;99.512;2024-02-16T12:02:58;22.92;;;13.85;;
36797;SDS011;22748;8.426;99.512;2024-02-16T12:05:30;27.75;;;18.27;;
36797;SDS011;22748;8.426;99.512;2024-02-16T12:08:00;34.00;;;20.23;;
36797;SDS011;22748;8.426;99.512;2024-02-16T12:10:30;36.78;;;21.40;;
36797;SDS011;22748;8.426;99.512;2024-02-16T12:13:00;55.75;;;28.35;;
36797;SDS011;22748;8.426;99.512;2024-02-16T12:15:31;45.00;;;23.77;;
36797;SDS011;22748;8.426;99.512;2024-02-16T12:18:00;30.38;;;16.77;;
36797;SDS011;22748;8.426;99.512;2024-02-16T12:20:36;25.42;;;16.30;;
36797;SDS011;22748;8.426;99.512;2024-02-16T12:23:11;31.98;;;17.75;;
36797;SDS011;22748;8.426;99.512;2024-02-16T12:25:40;37.55;;;21.45;;
36797;SDS011;22748;8.426;99.512;2024-02-16T12:28:09;37.65;;;20.10;;
36797;SDS011;22748;8.426;99.512;2024-02-16T12:30:39;41.78;;;22.42;;
36797;SDS011;22748;8.426;99.512;2024-02-16T12:33:11;35.95;;;22.73;;
36797;SDS011;22748;8.426;99.512;2024-02-16T12:35:43;33.78;;;18.70;;
36797;SDS011;22748;8.426;99.512;2024-02-16T12:38:12;29.58;;;17.35;;
36797;SDS011;22748;8.426;99.512;2024-02-16T12:40:42;29.17;;;16.65;;
36797;SDS011;22748;8.426;99.512;2024-02-16T12:43:12;25.50;;;15.63;;
36797;SDS011;22748;8.426;99.512;2024-02-16T12:45:42;27.90;;;16.67;;
36797;SDS011;22748;8.426;99.512;2024-02-16T12:48:11;34.97;;;19.10;;
36797;SDS011;22748;8.426;99.512;2024-02-16T12:50:40;30.05;;;18.17;;
36797;SDS011;22748;8.426;99.512;2024-02-16T12:53:16;32.72;;;19.38;;
36797;SDS011;22748;8.426;99.512;2024-02-16T12:55:46;32.00;;;18.98;;
36797;SDS011;22748;8.426;99.512;2024-02-16T12:58:16;29.05;;;19.38;;
36797;SDS011;22748;8.426;99.512;2024-02-16T13:00:46;33.58;;;20.65;;
36797;SDS011;22748;8.426;99.512;2024-02-16T13:03:15;29.15;;;19.60;;
36797;SDS011;22748;8.426;99.512;2024-02-16T13:05:44;25.55;;;16.45;;
36797;SDS011;22748;8.426;99.512;2024-02-16T13:08:18;29.40;;;17.73;;
36797;SDS011;22748;8.426;99.512;2024-02-16T13:10:47;37.53;;;21.33;;
36797;SDS011;22748;8.426;99.512;2024-02-16T13:13:16;30.92;;;20.45;;
36797;SDS011;22748;8.426;99.512;2024-02-16T13:15:46;25.33;;;17.20;;
36797;SDS011;22748;8.426;99.512;2024-02-16T13:18:18;22.73;;;16.48;;
36797;SDS011;22748;8.426;99.512;2024-02-16T13:20:48;26.30;;;16.60;;
36797;SDS011;22748;8.426;99.512;2024-02-16T13:23:25;29.63;;;19.08;;
36797;SDS011;22748;8.426;99.512;2024-02-16T13:25:54;28.02;;;20.60;;
36797;SDS011;22748;8.426;99.512;2024-02-16T13:28:30;30.95;;;20.48;;
36797;SDS011;22748;8.426;99.512;2024-02-16T13:30:59;53.00;;;31.17;;
36797;SDS011;22748;8.426;99.512;2024-02-16T13:33:30;39.15;;;22.92;;
36797;SDS011;22748;8.426;99.512;2024-02-16T13:36:02;30.02;;;19.25;;
36797;SDS011;22748;8.426;99.512;2024-02-16T13:38:35;27.20;;;17.30;;
36797;SDS011;22748;8.426;99.512;2024-02-16T13:41:05;27.95;;;18.58;;
36797;SDS011;22748;8.426;99.512;2024-02-16T13:43:34;25.42;;;17.73;;
36797;SDS011;22748;8.426;99.512;2024-02-16T13:46:04;25.30;;;17.42;;
36797;SDS011;22748;8.426;99.512;2024-02-16T13:48:33;27.55;;;17.52;;
36797;SDS011;22748;8.426;99.512;2024-02-16T13:51:03;26.02;;;18.48;;
36797;SDS011;22748;8.426;99.512;2024-02-16T13:53:37;29.73;;;19.42;;
36797;SDS011;22748;8.426;99.512;2024-02-16T13:56:08;26.02;;;19.30;;
36797;SDS011;22748;8.426;99.512;2024-02-16T13:58:38;28.15;;;18.60;;
36797;SDS011;22748;8.426;99.512;2024-02-16T14:01:08;35.17;;;23.98;;
36797;SDS011;22748;8.426;99.512;2024-02-16T14:03:38;44.83;;;29.15;;
36797;SDS011;22748;8.426;99.512;2024-02-16T14:06:06;39.35;;;26.10;;
36797;SDS011;22748;8.426;99.512;2024-02-16T14:08:39;38.35;;;21.98;;
36797;SDS011;22748;8.426;99.512;2024-02-16T14:13:35;33.10;;;22.25;;
36797;SDS011;22748;8.426;99.512;2024-02-16T14:16:04;35.15;;;20.63;;
36797;SDS011;22748;8.426;99.512;2024-02-16T14:18:33;27.90;;;19.48;;
36797;SDS011;22748;8.426;99.512;2024-02-16T14:21:03;27.30;;;19.95;;
36797;SDS011;22748;8.426;99.512;2024-02-16T14:23:32;30.45;;;20.80;;
36797;SDS011;22748;8.426;99.512;2024-02-16T14:26:07;32.42;;;19.98;;
36797;SDS011;22748;8.426;99.512;2024-02-16T14:28:37;28.15;;;19.38;;
36797;SDS011;22748;8.426;99.512;2024-02-16T14:31:06;29.65;;;20.00;;
36797;SDS011;22748;8.426;99.512;2024-02-16T14:33:36;30.40;;;19.45;;
36797;SDS011;22748;8.426;99.512;2024-02-16T14:36:05;28.27;;;21.13;;
36797;SDS011;22748;8.426;99.512;2024-02-16T14:38:38;31.10;;;23.33;;
36797;SDS011;22748;8.426;99.512;2024-02-16T14:41:10;34.33;;;23.90;;
36797;SDS011;22748;8.426;99.512;2024-02-16T14:43:39;37.30;;;24.70;;
36797;SDS011;22748;8.426;99.512;2024-02-16T14:46:08;40.97;;;27.77;;
36797;SDS011;22748;8.426;99.512;2024-02-16T14:48:37;48.58;;;29.92;;
36797;SDS011;22748;8.426;99.512;2024-02-16T14:51:06;39.10;;;26.10;;
36797;SDS011;22748;8.426;99.512;2024-02-16T14:53:34;37.60;;;25.73;;
36797;SDS011;22748;8.426;99.512;2024-02-16T14:56:03;37.13;;;24.45;;
36797;SDS011;22748;8.426;99.512;2024-02-16T14:58:37;35.45;;;22.27;;